Terminal Aerodrome Forecast
Issued by NWS Portland, ME

Home | Current Version | Previous Version | Text Only | Print | Product List | Glossary On
Versions: 1 2 3 4 5 6 7 8 9 10 11 12 13 14 15 16 17 18 19 20 21 22 23 24 25 26 27 28
000
FTUS41 KGYX 020700 AAA
TAFCON
TAF AMD
KCON 020700Z 0207/0306 VRB03KT 5SM BR BKN002
     FM020900 00000KT 1SM BR BKN002
      TEMPO 0209/0211 1/4SM FG VV001
     FM021300 24006KT P6SM SCT050
     FM030300 26004KT 5SM -SHRA BR BKN030=

USA.gov is the U.S. government's official web portal to all federal, state and local government web resources and services.